DAL180 RJTT-PHNL
Flight info
| Callsign | DAL180 |
|---|---|
| Flight time | N/A |
| Altitude | 35000 |
| Route | INUBO Y830 LAPIL OTR13 SEALS 36N150E 38N160E 38N170E 36N180E 32N170W DCT THOMA KLANI4 |
| Aircraft | B763/H-SDE3FGHIM3RWXY/LB1 |
Departure
| Time | 2026-05-05 18:51 |
|---|---|
| Airport | Tokyo Haneda International Airport (RJTT) |
Arrival
| Time | N/A |
|---|---|
| Airport | Daniel K. Inouye International Airport (PHNL) |
| Time | Latitude | Longitude | Altitude | Speed | Heading |
|---|---|---|---|---|---|
| 2026-05-05 17:59 | 35.54831 | 139.77087 | 31 ft | 0 kts | 330° |
| 2026-05-05 18:32 | 35.54826 | 139.77092 | 31 ft | 2 kts | 330° |
| 2026-05-05 18:33 | 35.54813 | 139.77101 | 31 ft | 2 kts | 330° |
| 2026-05-05 18:33 | 35.54799 | 139.77110 | 31 ft | 2 kts | 330° |
| 2026-05-05 18:33 | 35.54786 | 139.77119 | 31 ft | 2 kts | 330° |
| 2026-05-05 18:33 | 35.54773 | 139.77127 | 31 ft | 2 kts | 353° |
| 2026-05-05 18:34 | 35.54758 | 139.77125 | 31 ft | 2 kts | 18° |
| 2026-05-05 18:34 | 35.54745 | 139.77118 | 31 ft | 2 kts | 42° |
| 2026-05-05 18:34 | 35.54738 | 139.77107 | 31 ft | 1 kts | 61° |
| 2026-05-05 18:34 | 35.54738 | 139.77106 | 31 ft | 0 kts | 61° |
| 2026-05-05 18:38 | 35.54741 | 139.77113 | 31 ft | 2 kts | 61° |
| 2026-05-05 18:39 | 35.54752 | 139.77138 | 31 ft | 3 kts | 60° |
| 2026-05-05 18:39 | 35.54767 | 139.77170 | 31 ft | 4 kts | 60° |
| 2026-05-05 18:39 | 35.54785 | 139.77208 | 31 ft | 5 kts | 60° |
| 2026-05-05 18:39 | 35.54804 | 139.77249 | 31 ft | 5 kts | 60° |
| 2026-05-05 18:40 | 35.54823 | 139.77292 | 31 ft | 5 kts | 67° |
| 2026-05-05 18:40 | 35.54824 | 139.77333 | 31 ft | 4 kts | 106° |
| 2026-05-05 18:40 | 35.54807 | 139.77367 | 31 ft | 4 kts | 132° |
| 2026-05-05 18:40 | 35.54776 | 139.77393 | 31 ft | 8 kts | 152° |
| 2026-05-05 18:41 | 35.54712 | 139.77434 | 31 ft | 11 kts | 151° |
| 2026-05-05 18:41 | 35.54688 | 139.77498 | 31 ft | 7 kts | 77° |
| 2026-05-05 18:41 | 35.54711 | 139.77556 | 31 ft | 8 kts | 63° |
| 2026-05-05 18:41 | 35.54744 | 139.77628 | 31 ft | 10 kts | 60° |
| 2026-05-05 18:42 | 35.54783 | 139.77710 | 31 ft | 11 kts | 60° |
| 2026-05-05 18:42 | 35.54827 | 139.77803 | 31 ft | 13 kts | 60° |
| 2026-05-05 18:42 | 35.54874 | 139.77898 | 31 ft | 11 kts | 49° |
| 2026-05-05 18:42 | 35.54948 | 139.77910 | 31 ft | 11 kts | 331° |
| 2026-05-05 18:43 | 35.55016 | 139.77856 | 31 ft | 11 kts | 329° |
| 2026-05-05 18:43 | 35.55089 | 139.77803 | 31 ft | 12 kts | 329° |
| 2026-05-05 18:43 | 35.55167 | 139.77748 | 31 ft | 13 kts | 330° |
| 2026-05-05 18:43 | 35.55247 | 139.77693 | 31 ft | 12 kts | 331° |
| 2026-05-05 18:44 | 35.55310 | 139.77683 | 31 ft | 6 kts | 32° |
| 2026-05-05 18:44 | 35.55350 | 139.77721 | 31 ft | 7 kts | 27° |
| 2026-05-05 18:44 | 35.55394 | 139.77716 | 31 ft | 6 kts | 335° |
| 2026-05-05 18:44 | 35.55439 | 139.77686 | 31 ft | 8 kts | 330° |
| 2026-05-05 18:45 | 35.55506 | 139.77637 | 31 ft | 14 kts | 329° |
| 2026-05-05 18:45 | 35.55613 | 139.77560 | 31 ft | 20 kts | 329° |
| 2026-05-05 18:45 | 35.55751 | 139.77457 | 31 ft | 26 kts | 328° |
| 2026-05-05 18:45 | 35.55903 | 139.77354 | 31 ft | 19 kts | 337° |
| 2026-05-05 18:46 | 35.56007 | 139.77348 | 31 ft | 17 kts | 20° |
| 2026-05-05 18:46 | 35.56123 | 139.77444 | 31 ft | 22 kts | 36° |
| 2026-05-05 18:46 | 35.56216 | 139.77525 | 31 ft | 18 kts | 36° |
| 2026-05-05 18:46 | 35.56292 | 139.77593 | 31 ft | 12 kts | 35° |
| 2026-05-05 18:47 | 35.56358 | 139.77693 | 31 ft | 17 kts | 60° |
| 2026-05-05 18:47 | 35.56428 | 139.77843 | 31 ft | 22 kts | 60° |
| 2026-05-05 18:47 | 35.56509 | 139.78014 | 31 ft | 19 kts | 60° |
| 2026-05-05 18:47 | 35.56580 | 139.78162 | 31 ft | 18 kts | 60° |
| 2026-05-05 18:48 | 35.56628 | 139.78291 | 31 ft | 13 kts | 91° |
| 2026-05-05 18:48 | 35.56566 | 139.78395 | 31 ft | 15 kts | 137° |
| 2026-05-05 18:48 | 35.56506 | 139.78471 | 31 ft | 8 kts | 112° |
| 2026-05-05 18:48 | 35.56513 | 139.78525 | 31 ft | 4 kts | 61° |
| 2026-05-05 18:49 | 35.56528 | 139.78557 | 31 ft | 0 kts | 60° |
| 2026-05-05 18:49 | 35.56531 | 139.78564 | 31 ft | 2 kts | 60° |
| 2026-05-05 18:49 | 35.56541 | 139.78586 | 31 ft | 3 kts | 60° |
| 2026-05-05 18:49 | 35.56556 | 139.78619 | 31 ft | 4 kts | 60° |
| 2026-05-05 18:50 | 35.56562 | 139.78654 | 31 ft | 4 kts | 96° |
| 2026-05-05 18:50 | 35.56522 | 139.78713 | 31 ft | 11 kts | 152° |
| 2026-05-05 18:50 | 35.56445 | 139.78758 | 31 ft | 11 kts | 151° |
| 2026-05-05 18:50 | 35.56379 | 139.78804 | 31 ft | 10 kts | 150° |
| 2026-05-05 18:51 | 35.56314 | 139.78850 | 31 ft | 14 kts | 150° |
| 2026-05-05 18:51 | 35.56062 | 139.79030 | 31 ft | 82 kts | 150° |
| 2026-05-05 18:51 | 35.55304 | 139.79567 | 37 ft | 162 kts | 151° |
| 2026-05-05 18:51 | 35.54274 | 139.80385 | 669 ft | 186 kts | 147° |
| 2026-05-05 18:52 | 35.53246 | 139.81381 | 1670 ft | 198 kts | 141° |
| 2026-05-05 18:52 | 35.52321 | 139.82553 | 2839 ft | 201 kts | 136° |
| 2026-05-05 18:52 | 35.51252 | 139.83925 | 2675 ft | 247 kts | 137° |
| 2026-05-05 18:52 | 35.49834 | 139.85605 | 2049 ft | 307 kts | 139° |
| 2026-05-05 18:53 | 35.48254 | 139.87361 | 3294 ft | 301 kts | 141° |
| 2026-05-05 18:53 | 35.46902 | 139.88768 | 5887 ft | 234 kts | 143° |
| 2026-05-05 18:53 | 35.45751 | 139.89888 | 7016 ft | 215 kts | 145° |
| 2026-05-05 18:53 | 35.44358 | 139.91132 | 6097 ft | 290 kts | 147° |
| 2026-05-05 18:54 | 35.42493 | 139.92673 | 5442 ft | 345 kts | 148° |
| 2026-05-05 18:54 | 35.40614 | 139.94136 | 7610 ft | 304 kts | 149° |
| 2026-05-05 18:54 | 35.39182 | 139.95216 | 10168 ft | 230 kts | 147° |
| 2026-05-05 18:54 | 35.37994 | 139.96622 | 10187 ft | 259 kts | 120° |
| 2026-05-05 18:55 | 35.37475 | 139.98822 | 10274 ft | 286 kts | 92° |
| 2026-05-05 18:55 | 35.37849 | 140.01303 | 10381 ft | 313 kts | 69° |
| 2026-05-05 18:55 | 35.39024 | 140.03696 | 10470 ft | 341 kts | 51° |
| 2026-05-05 18:55 | 35.40868 | 140.05698 | 10539 ft | 369 kts | 33° |
| 2026-05-05 18:56 | 35.43215 | 140.07019 | 11075 ft | 378 kts | 18° |
| 2026-05-05 18:56 | 35.45735 | 140.07944 | 11765 ft | 382 kts | 18° |
| 2026-05-05 18:56 | 35.48284 | 140.08977 | 12403 ft | 386 kts | 23° |
| 2026-05-05 18:56 | 35.50639 | 140.10582 | 13007 ft | 389 kts | 39° |
| 2026-05-05 18:57 | 35.52567 | 140.12932 | 13646 ft | 390 kts | 55° |
| 2026-05-05 18:57 | 35.53902 | 140.15781 | 14229 ft | 390 kts | 71° |
| 2026-05-05 18:57 | 35.54583 | 140.18970 | 14767 ft | 391 kts | 86° |
| 2026-05-05 18:57 | 35.54568 | 140.22295 | 15337 ft | 390 kts | 98° |
| 2026-05-05 18:58 | 35.54418 | 140.25627 | 15828 ft | 397 kts | 89° |
| 2026-05-05 18:58 | 35.54901 | 140.28976 | 16371 ft | 403 kts | 76° |
| 2026-05-05 18:58 | 35.55753 | 140.32262 | 16846 ft | 408 kts | 72° |
| 2026-05-05 18:58 | 35.56768 | 140.35536 | 17326 ft | 412 kts | 70° |
| 2026-05-05 18:59 | 35.57857 | 140.38792 | 17880 ft | 414 kts | 69° |
| 2026-05-05 18:59 | 35.58989 | 140.42042 | 18290 ft | 419 kts | 68° |
| 2026-05-05 18:59 | 35.60167 | 140.45357 | 18611 ft | 426 kts | 68° |
| 2026-05-05 18:59 | 35.61367 | 140.48694 | 19000 ft | 429 kts | 67° |
| 2026-05-05 19:00 | 35.62585 | 140.52065 | 19292 ft | 436 kts | 67° |
| 2026-05-05 19:00 | 35.63814 | 140.55464 | 19670 ft | 440 kts | 67° |
| 2026-05-05 19:00 | 35.65060 | 140.58905 | 20006 ft | 444 kts | 66° |
| 2026-05-05 19:00 | 35.66319 | 140.62384 | 20283 ft | 450 kts | 66° |
| 2026-05-05 19:01 | 35.67589 | 140.65895 | 20622 ft | 453 kts | 67° |
| 2026-05-05 19:01 | 35.68858 | 140.69447 | 20921 ft | 456 kts | 69° |
| 2026-05-05 19:01 | 35.69824 | 140.73178 | 21167 ft | 460 kts | 79° |
| 2026-05-05 19:01 | 35.70263 | 140.77069 | 21413 ft | 461 kts | 90° |
| 2026-05-05 19:02 | 35.70204 | 140.80972 | 21744 ft | 460 kts | 99° |
| 2026-05-05 19:02 | 35.69638 | 140.84865 | 21876 ft | 461 kts | 109° |
| 2026-05-05 19:02 | 35.68554 | 140.88541 | 22173 ft | 457 kts | 120° |
| 2026-05-05 19:02 | 35.67034 | 140.91954 | 22398 ft | 456 kts | 126° |
| 2026-05-05 19:03 | 35.65441 | 140.95305 | 22582 ft | 461 kts | 125° |
| 2026-05-05 19:03 | 35.63817 | 140.98744 | 22769 ft | 465 kts | 125° |
| 2026-05-05 19:03 | 35.62207 | 141.02162 | 22971 ft | 468 kts | 126° |
| 2026-05-05 19:03 | 35.60575 | 141.05626 | 23261 ft | 469 kts | 126° |
| 2026-05-05 19:04 | 35.58931 | 141.09106 | 23365 ft | 474 kts | 126° |
| 2026-05-05 19:04 | 35.57276 | 141.12610 | 23635 ft | 476 kts | 125° |
| 2026-05-05 19:04 | 35.55624 | 141.16109 | 23796 ft | 479 kts | 126° |
| 2026-05-05 19:04 | 35.53942 | 141.19661 | 24028 ft | 480 kts | 126° |
| 2026-05-05 19:05 | 35.52258 | 141.23216 | 24197 ft | 483 kts | 126° |
| 2026-05-05 19:05 | 35.50566 | 141.26787 | 24385 ft | 485 kts | 126° |
| 2026-05-05 19:05 | 35.48890 | 141.30319 | 24601 ft | 486 kts | 126° |
| 2026-05-05 19:05 | 35.47176 | 141.33925 | 24718 ft | 489 kts | 126° |
| 2026-05-05 19:06 | 35.45453 | 141.37546 | 24899 ft | 491 kts | 126° |
| 2026-05-05 19:06 | 35.43743 | 141.41139 | 25030 ft | 493 kts | 126° |
| 2026-05-05 19:06 | 35.42024 | 141.44745 | 25192 ft | 494 kts | 127° |
| 2026-05-05 19:06 | 35.40270 | 141.48422 | 25306 ft | 497 kts | 126° |
| 2026-05-05 19:07 | 35.38532 | 141.52060 | 25409 ft | 500 kts | 127° |
| 2026-05-05 19:07 | 35.37374 | 141.54485 | 25576 ft | 499 kts | 126° |
| 2026-05-05 19:07 | 35.35015 | 141.59413 | 25741 ft | 502 kts | 126° |
| 2026-05-05 19:07 | 35.33264 | 141.63066 | 25870 ft | 503 kts | 126° |
| 2026-05-05 19:08 | 35.31478 | 141.66791 | 25961 ft | 506 kts | 127° |
| 2026-05-05 19:08 | 35.29746 | 141.70660 | 26184 ft | 509 kts | 121° |
| 2026-05-05 19:08 | 35.28431 | 141.74783 | 26175 ft | 520 kts | 111° |
| 2026-05-05 19:08 | 35.27619 | 141.79242 | 26333 ft | 526 kts | 102° |
| 2026-05-05 19:09 | 35.27342 | 141.83688 | 26365 ft | 533 kts | 92° |
| 2026-05-05 19:09 | 35.27400 | 141.88220 | 26404 ft | 535 kts | 92° |
| 2026-05-05 19:09 | 35.27389 | 141.92780 | 26522 ft | 535 kts | 92° |
| 2026-05-05 19:09 | 35.27369 | 141.97298 | 26642 ft | 535 kts | 93° |
| 2026-05-05 19:10 | 35.27329 | 142.01892 | 26722 ft | 537 kts | 93° |
| 2026-05-05 19:10 | 35.27283 | 142.06377 | 26861 ft | 536 kts | 93° |
| 2026-05-05 19:10 | 35.27233 | 142.10980 | 26953 ft | 537 kts | 93° |
| 2026-05-05 19:10 | 35.27178 | 142.15562 | 26959 ft | 539 kts | 93° |
| 2026-05-05 19:11 | 35.27124 | 142.20138 | 27028 ft | 540 kts | 93° |
| 2026-05-05 19:11 | 35.27066 | 142.24715 | 27143 ft | 540 kts | 94° |
| 2026-05-05 19:11 | 35.27006 | 142.29271 | 27151 ft | 543 kts | 93° |
| 2026-05-05 19:11 | 35.26943 | 142.33873 | 27210 ft | 544 kts | 93° |
| 2026-05-05 19:12 | 35.26881 | 142.38472 | 27335 ft | 543 kts | 93° |
| 2026-05-05 19:12 | 35.26818 | 142.43083 | 27441 ft | 544 kts | 94° |
| 2026-05-05 19:12 | 35.26748 | 142.47694 | 27474 ft | 545 kts | 94° |
| 2026-05-05 19:12 | 35.26680 | 142.52321 | 27541 ft | 546 kts | 94° |
| 2026-05-05 19:13 | 35.26606 | 142.56995 | 27562 ft | 547 kts | 94° |
| 2026-05-05 19:13 | 35.26533 | 142.61587 | 27650 ft | 548 kts | 93° |
| 2026-05-05 19:13 | 35.26461 | 142.66258 | 27710 ft | 548 kts | 94° |
| 2026-05-05 19:13 | 35.26383 | 142.70906 | 27738 ft | 549 kts | 94° |
| 2026-05-05 19:14 | 35.26304 | 142.75610 | 27791 ft | 549 kts | 94° |
| 2026-05-05 19:14 | 35.26225 | 142.80270 | 27812 ft | 550 kts | 94° |
| 2026-05-05 19:14 | 35.26141 | 142.84943 | 27905 ft | 549 kts | 94° |
| 2026-05-05 19:14 | 35.26056 | 142.89609 | 27941 ft | 550 kts | 94° |
| 2026-05-05 19:15 | 35.25970 | 142.94263 | 27944 ft | 551 kts | 94° |
| 2026-05-05 19:15 | 35.25883 | 142.98924 | 28000 ft | 551 kts | 94° |
| 2026-05-05 19:15 | 35.25703 | 143.08266 | 28077 ft | 552 kts | 94° |
| 2026-05-05 19:16 | 35.25512 | 143.17696 | 28119 ft | 554 kts | 94° |
| 2026-05-05 19:16 | 35.25416 | 143.22388 | 28231 ft | 552 kts | 94° |
| 2026-05-05 19:16 | 35.25319 | 143.27008 | 28268 ft | 553 kts | 95° |
| 2026-05-05 19:17 | 35.25257 | 143.36449 | 28324 ft | 555 kts | 89° |
| 2026-05-05 19:17 | 35.25557 | 143.45833 | 28377 ft | 556 kts | 90° |
| 2026-05-05 19:18 | 35.25821 | 143.55264 | 28441 ft | 557 kts | 90° |
| 2026-05-05 19:18 | 35.26072 | 143.64677 | 28529 ft | 557 kts | 90° |
| 2026-05-05 19:19 | 35.26316 | 143.74138 | 28579 ft | 556 kts | 91° |
| 2026-05-05 19:19 | 35.26553 | 143.83540 | 28649 ft | 556 kts | 92° |
| 2026-05-05 19:20 | 35.26779 | 143.93004 | 28634 ft | 558 kts | 91° |
| 2026-05-05 19:20 | 35.26894 | 143.97725 | 28739 ft | 556 kts | 91° |
| 2026-05-05 19:20 | 35.26999 | 144.02387 | 28748 ft | 556 kts | 91° |
| 2026-05-05 19:21 | 35.27214 | 144.11847 | 28770 ft | 556 kts | 92° |
| 2026-05-05 19:21 | 35.27418 | 144.21245 | 28812 ft | 557 kts | 91° |
| 2026-05-05 19:22 | 35.27620 | 144.30681 | 28846 ft | 558 kts | 92° |
| 2026-05-05 19:22 | 35.27810 | 144.40137 | 28897 ft | 558 kts | 91° |
| 2026-05-05 19:23 | 35.27996 | 144.49629 | 28926 ft | 559 kts | 91° |
| 2026-05-05 19:23 | 35.28175 | 144.59135 | 28966 ft | 559 kts | 91° |
| 2026-05-05 19:24 | 35.28344 | 144.68666 | 28999 ft | 560 kts | 91° |
| 2026-05-05 19:24 | 35.28507 | 144.78099 | 28986 ft | 560 kts | 91° |
| 2026-05-05 19:25 | 35.28662 | 144.87639 | 29012 ft | 560 kts | 91° |
| 2026-05-05 19:25 | 35.28827 | 144.97111 | 29041 ft | 560 kts | 90° |
| 2026-05-05 19:26 | 35.29181 | 145.06633 | 29051 ft | 561 kts | 89° |
| 2026-05-05 19:26 | 35.29523 | 145.16128 | 29072 ft | 561 kts | 89° |
| 2026-05-05 19:27 | 35.29856 | 145.25648 | 29079 ft | 561 kts | 89° |
| 2026-05-05 19:27 | 35.30181 | 145.35147 | 29104 ft | 562 kts | 89° |
| 2026-05-05 19:28 | 35.30499 | 145.44704 | 29125 ft | 562 kts | 89° |
| 2026-05-05 19:28 | 35.30808 | 145.54198 | 29163 ft | 562 kts | 89° |
| 2026-05-05 19:29 | 35.31109 | 145.63747 | 29196 ft | 563 kts | 89° |
| 2026-05-05 19:29 | 35.31405 | 145.73306 | 29204 ft | 562 kts | 89° |
| 2026-05-05 19:30 | 35.31694 | 145.82849 | 29185 ft | 563 kts | 89° |
| 2026-05-05 19:30 | 35.32069 | 145.92381 | 29179 ft | 563 kts | 85° |
| 2026-05-05 19:31 | 35.33635 | 146.01640 | 29199 ft | 561 kts | 68° |
| 2026-05-05 19:31 | 35.37169 | 146.10057 | 29232 ft | 551 kts | 50° |
| 2026-05-05 19:32 | 35.41899 | 146.17357 | 29281 ft | 548 kts | 49° |
| 2026-05-05 19:32 | 35.46335 | 146.24893 | 29298 ft | 550 kts | 50° |
| 2026-05-05 19:33 | 35.50711 | 146.32617 | 29326 ft | 551 kts | 50° |
| 2026-05-05 19:33 | 35.55045 | 146.40355 | 29351 ft | 551 kts | 50° |
| 2026-05-05 19:34 | 35.59385 | 146.48135 | 29385 ft | 552 kts | 50° |
| 2026-05-05 19:35 | 35.65840 | 146.59753 | 29450 ft | 552 kts | 50° |
| 2026-05-05 19:35 | 35.70171 | 146.67564 | 29469 ft | 552 kts | 51° |
| 2026-05-05 19:36 | 35.74462 | 146.75326 | 29456 ft | 552 kts | 51° |
| 2026-05-05 19:36 | 35.78781 | 146.83153 | 29447 ft | 552 kts | 51° |
| 2026-05-05 19:37 | 35.83066 | 146.90941 | 29447 ft | 552 kts | 51° |
| 2026-05-05 19:37 | 35.87382 | 146.98799 | 29446 ft | 553 kts | 51° |
| 2026-05-05 19:38 | 35.91664 | 147.06615 | 29454 ft | 553 kts | 51° |
| 2026-05-05 19:38 | 35.95960 | 147.14467 | 29468 ft | 553 kts | 50° |
| 2026-05-05 19:39 | 36.00245 | 147.22327 | 29491 ft | 553 kts | 51° |
| 2026-05-05 19:39 | 36.04541 | 147.30215 | 29507 ft | 553 kts | 51° |
| 2026-05-05 19:40 | 36.08805 | 147.38074 | 29545 ft | 554 kts | 51° |
| 2026-05-05 19:40 | 36.13103 | 147.46004 | 29569 ft | 554 kts | 51° |
| 2026-05-05 19:41 | 36.17381 | 147.53922 | 29603 ft | 554 kts | 51° |
| 2026-05-05 19:41 | 36.21648 | 147.61835 | 29629 ft | 554 kts | 51° |
| 2026-05-05 19:42 | 36.25892 | 147.69724 | 29633 ft | 554 kts | 52° |
| 2026-05-05 19:42 | 36.30165 | 147.77686 | 29618 ft | 554 kts | 52° |
| 2026-05-05 19:43 | 36.34408 | 147.85608 | 29600 ft | 555 kts | 52° |
| 2026-05-05 19:43 | 36.38668 | 147.93579 | 29594 ft | 555 kts | 52° |
| 2026-05-05 19:44 | 36.42926 | 148.01566 | 29599 ft | 555 kts | 51° |
| 2026-05-05 19:44 | 36.47149 | 148.09508 | 29604 ft | 555 kts | 52° |
| 2026-05-05 19:45 | 36.51383 | 148.17491 | 29611 ft | 555 kts | 51° |
| 2026-05-05 19:45 | 36.55635 | 148.25522 | 29623 ft | 556 kts | 52° |
| 2026-05-05 19:46 | 36.59844 | 148.33504 | 29658 ft | 556 kts | 51° |
| 2026-05-05 19:46 | 36.64078 | 148.41536 | 29687 ft | 556 kts | 51° |
| 2026-05-05 19:47 | 36.68305 | 148.49577 | 29727 ft | 556 kts | 51° |
| 2026-05-05 19:47 | 36.72539 | 148.57654 | 29771 ft | 557 kts | 51° |
| 2026-05-05 19:48 | 36.76767 | 148.65741 | 29818 ft | 556 kts | 51° |
| 2026-05-05 19:48 | 36.80972 | 148.73795 | 29789 ft | 557 kts | 52° |
| 2026-05-05 19:49 | 36.85183 | 148.81885 | 29776 ft | 557 kts | 51° |
| 2026-05-05 19:49 | 36.89385 | 148.89984 | 29769 ft | 557 kts | 50° |
| 2026-05-05 19:50 | 36.93577 | 148.98068 | 29764 ft | 557 kts | 51° |
| 2026-05-05 19:50 | 36.97758 | 149.06163 | 29771 ft | 557 kts | 51° |
| 2026-05-05 19:51 | 37.01976 | 149.14345 | 29784 ft | 558 kts | 51° |
| 2026-05-05 19:51 | 37.06142 | 149.22443 | 29820 ft | 558 kts | 51° |
| 2026-05-05 19:52 | 37.10337 | 149.30618 | 29853 ft | 558 kts | 51° |
| 2026-05-05 19:52 | 37.14516 | 149.38783 | 29866 ft | 559 kts | 51° |
| 2026-05-05 19:53 | 37.18707 | 149.46992 | 29910 ft | 559 kts | 51° |
| 2026-05-05 19:53 | 37.22895 | 149.55219 | 29965 ft | 559 kts | 51° |
| 2026-05-05 19:54 | 37.27052 | 149.63399 | 30010 ft | 559 kts | 51° |
| 2026-05-05 19:54 | 37.31212 | 149.71611 | 30018 ft | 559 kts | 52° |
| 2026-05-05 19:55 | 37.35363 | 149.79823 | 30005 ft | 559 kts | 51° |
| 2026-05-05 19:55 | 37.39520 | 149.88066 | 30007 ft | 558 kts | 52° |
| 2026-05-05 19:56 | 37.43647 | 149.96268 | 29994 ft | 559 kts | 52° |
| 2026-05-05 19:56 | 37.47807 | 150.04561 | 29994 ft | 559 kts | 51° |
| 2026-05-05 19:57 | 37.51921 | 150.12782 | 30028 ft | 559 kts | 52° |
| 2026-05-05 19:57 | 37.56058 | 150.21069 | 30043 ft | 559 kts | 52° |
| 2026-05-05 19:58 | 37.60169 | 150.29323 | 30074 ft | 559 kts | 52° |
| 2026-05-05 19:58 | 37.64291 | 150.37620 | 30116 ft | 559 kts | 51° |
| 2026-05-05 19:59 | 37.68396 | 150.45906 | 30150 ft | 559 kts | 51° |
| 2026-05-05 19:59 | 37.72518 | 150.54246 | 30200 ft | 559 kts | 51° |
| 2026-05-05 20:00 | 37.76598 | 150.62520 | 30263 ft | 558 kts | 51° |
| 2026-05-05 20:00 | 37.80704 | 150.70868 | 30265 ft | 558 kts | 52° |
| 2026-05-05 20:01 | 37.84795 | 150.79208 | 30242 ft | 558 kts | 51° |
| 2026-05-05 20:01 | 37.88874 | 150.87550 | 30250 ft | 558 kts | 52° |
| 2026-05-05 20:02 | 37.92928 | 150.95856 | 30245 ft | 557 kts | 51° |
| 2026-05-05 20:02 | 37.97004 | 151.04225 | 30266 ft | 557 kts | 51° |
| 2026-05-05 20:03 | 38.01038 | 151.12534 | 30274 ft | 557 kts | 51° |
| 2026-05-05 20:03 | 38.05077 | 151.20874 | 30293 ft | 557 kts | 51° |
| 2026-05-05 20:04 | 38.09126 | 151.29253 | 30318 ft | 557 kts | 52° |
| 2026-05-05 20:04 | 38.13150 | 151.37607 | 30370 ft | 556 kts | 52° |
| 2026-05-05 20:05 | 38.17155 | 151.45943 | 30416 ft | 556 kts | 52° |
| 2026-05-05 20:05 | 38.21166 | 151.54309 | 30459 ft | 555 kts | 52° |
| 2026-05-05 20:06 | 38.25171 | 151.62686 | 30498 ft | 555 kts | 52° |
| 2026-05-05 20:06 | 38.29165 | 151.71059 | 30508 ft | 554 kts | 53° |
| 2026-05-05 20:07 | 38.33147 | 151.79436 | 30508 ft | 554 kts | 53° |
| 2026-05-05 20:07 | 38.37110 | 151.87788 | 30497 ft | 553 kts | 53° |
| 2026-05-05 20:08 | 38.41069 | 151.96158 | 30505 ft | 552 kts | 53° |
| 2026-05-05 20:08 | 38.45015 | 152.04517 | 30509 ft | 552 kts | 52° |
| 2026-05-05 20:09 | 38.48943 | 152.12860 | 30518 ft | 551 kts | 53° |
| 2026-05-05 20:09 | 38.52883 | 152.21252 | 30550 ft | 550 kts | 53° |
| 2026-05-05 20:10 | 38.56785 | 152.29582 | 30569 ft | 550 kts | 53° |
| 2026-05-05 20:10 | 38.60718 | 152.38005 | 30610 ft | 549 kts | 53° |
| 2026-05-05 20:11 | 38.64603 | 152.46347 | 30638 ft | 548 kts | 53° |
| 2026-05-05 20:11 | 38.68472 | 152.54675 | 30680 ft | 548 kts | 53° |
| 2026-05-05 20:12 | 38.72374 | 152.63091 | 30724 ft | 547 kts | 53° |
| 2026-05-05 20:12 | 38.76234 | 152.71445 | 30757 ft | 546 kts | 54° |
| 2026-05-05 20:13 | 38.80075 | 152.79778 | 30708 ft | 545 kts | 54° |
| 2026-05-05 20:13 | 38.83926 | 152.88153 | 30729 ft | 544 kts | 54° |
| 2026-05-05 20:14 | 38.87757 | 152.96504 | 30758 ft | 543 kts | 54° |
| 2026-05-05 20:14 | 38.91573 | 153.04848 | 30751 ft | 542 kts | 54° |
| 2026-05-05 20:15 | 38.95358 | 153.13148 | 30764 ft | 542 kts | 54° |
| 2026-05-05 20:15 | 38.99147 | 153.21477 | 30795 ft | 541 kts | 54° |
| 2026-05-05 20:16 | 39.02921 | 153.29796 | 30819 ft | 540 kts | 54° |
| 2026-05-05 20:16 | 39.06693 | 153.38130 | 30832 ft | 539 kts | 54° |
| 2026-05-05 20:17 | 39.10454 | 153.46460 | 30908 ft | 538 kts | 54° |
| 2026-05-05 20:17 | 39.14180 | 153.54739 | 30908 ft | 537 kts | 54° |
| 2026-05-05 20:18 | 39.17916 | 153.63060 | 30961 ft | 536 kts | 54° |
| 2026-05-05 20:18 | 39.21637 | 153.71368 | 30974 ft | 535 kts | 55° |
| 2026-05-05 20:19 | 39.25328 | 153.79633 | 30942 ft | 534 kts | 55° |
| 2026-05-05 20:19 | 39.28996 | 153.87866 | 30978 ft | 533 kts | 55° |
| 2026-05-05 20:20 | 39.32681 | 153.96162 | 30965 ft | 532 kts | 55° |
| 2026-05-05 20:20 | 39.36347 | 154.04434 | 31002 ft | 531 kts | 55° |
| 2026-05-05 20:21 | 39.39984 | 154.12665 | 31004 ft | 530 kts | 55° |
| 2026-05-05 20:21 | 39.43631 | 154.20937 | 31035 ft | 529 kts | 55° |
| 2026-05-05 20:22 | 39.47233 | 154.29129 | 31079 ft | 527 kts | 55° |
| 2026-05-05 20:22 | 39.50854 | 154.37392 | 31078 ft | 526 kts | 56° |
| 2026-05-05 20:23 | 39.54434 | 154.45578 | 31126 ft | 525 kts | 55° |
| 2026-05-05 20:23 | 39.58022 | 154.53803 | 31177 ft | 523 kts | 55° |
| 2026-05-05 20:24 | 39.61566 | 154.61952 | 31189 ft | 522 kts | 55° |
| 2026-05-05 20:24 | 39.65127 | 154.70158 | 31196 ft | 521 kts | 56° |
| 2026-05-05 20:25 | 39.68671 | 154.78348 | 31187 ft | 519 kts | 56° |
| 2026-05-05 20:25 | 39.72176 | 154.86472 | 31222 ft | 518 kts | 56° |
| 2026-05-05 20:26 | 39.75683 | 154.94621 | 31208 ft | 517 kts | 56° |
| 2026-05-05 20:26 | 39.79176 | 155.02754 | 31243 ft | 516 kts | 56° |
| 2026-05-05 20:27 | 39.82640 | 155.10846 | 31256 ft | 514 kts | 56° |
| 2026-05-05 20:27 | 39.86096 | 155.18941 | 31290 ft | 513 kts | 56° |
| 2026-05-05 20:28 | 39.89537 | 155.27019 | 31275 ft | 512 kts | 56° |
| 2026-05-05 20:28 | 39.92979 | 155.35123 | 31330 ft | 510 kts | 56° |
| 2026-05-05 20:29 | 39.96386 | 155.43166 | 31344 ft | 509 kts | 56° |
| 2026-05-05 20:29 | 39.99797 | 155.51237 | 31422 ft | 508 kts | 56° |
| 2026-05-05 20:30 | 40.03196 | 155.59302 | 31451 ft | 507 kts | 56° |
| 2026-05-05 20:30 | 40.06575 | 155.67342 | 31463 ft | 506 kts | 57° |
| 2026-05-05 20:31 | 40.09941 | 155.75369 | 31446 ft | 505 kts | 57° |
| 2026-05-05 20:31 | 40.13288 | 155.83375 | 31444 ft | 504 kts | 57° |
| 2026-05-05 20:32 | 40.16642 | 155.91415 | 31447 ft | 503 kts | 57° |
| 2026-05-05 20:32 | 40.19979 | 155.99442 | 31445 ft | 502 kts | 57° |
| 2026-05-05 20:33 | 40.23309 | 156.07469 | 31452 ft | 502 kts | 57° |
| 2026-05-05 20:33 | 40.26618 | 156.15468 | 31472 ft | 501 kts | 57° |
| 2026-05-05 20:34 | 40.29924 | 156.23483 | 31471 ft | 500 kts | 57° |
| 2026-05-05 20:34 | 40.33210 | 156.31467 | 31484 ft | 500 kts | 57° |
| 2026-05-05 20:35 | 40.36501 | 156.39482 | 31509 ft | 499 kts | 57° |
| 2026-05-05 20:35 | 40.39765 | 156.47456 | 31512 ft | 499 kts | 57° |
| 2026-05-05 20:36 | 40.43035 | 156.55466 | 31539 ft | 498 kts | 57° |
| 2026-05-05 20:36 | 40.46277 | 156.63429 | 31547 ft | 498 kts | 57° |
| 2026-05-05 20:37 | 40.49537 | 156.71457 | 31559 ft | 498 kts | 57° |
| 2026-05-05 20:37 | 40.52785 | 156.79475 | 31559 ft | 497 kts | 57° |
| 2026-05-05 20:38 | 40.56017 | 156.87477 | 31553 ft | 497 kts | 58° |
| 2026-05-05 20:38 | 40.59226 | 156.95442 | 31550 ft | 497 kts | 57° |
| 2026-05-05 20:39 | 40.62445 | 157.03456 | 31556 ft | 497 kts | 57° |
| 2026-05-05 20:39 | 40.65662 | 157.11485 | 31573 ft | 496 kts | 57° |
| 2026-05-05 20:40 | 40.68870 | 157.19511 | 31580 ft | 496 kts | 57° |
| 2026-05-05 20:40 | 40.72059 | 157.27512 | 31583 ft | 496 kts | 57° |
| 2026-05-05 20:41 | 40.75273 | 157.35596 | 31598 ft | 496 kts | 57° |
| 2026-05-05 20:41 | 40.78461 | 157.43640 | 31608 ft | 496 kts | 57° |
| 2026-05-05 20:42 | 40.81643 | 157.51689 | 31624 ft | 496 kts | 57° |
| 2026-05-05 20:42 | 40.84816 | 157.59738 | 31652 ft | 496 kts | 57° |
| 2026-05-05 20:43 | 40.87989 | 157.67809 | 31692 ft | 496 kts | 58° |
| 2026-05-05 20:43 | 40.91139 | 157.75841 | 31654 ft | 496 kts | 58° |
| 2026-05-05 20:44 | 40.94300 | 157.83926 | 31684 ft | 496 kts | 57° |
| 2026-05-05 20:44 | 40.97449 | 157.91998 | 31720 ft | 496 kts | 57° |
| 2026-05-05 20:45 | 41.02182 | 158.04176 | 31706 ft | 496 kts | 58° |
| 2026-05-05 20:45 | 41.05322 | 158.12286 | 31706 ft | 496 kts | 58° |
| 2026-05-05 20:46 | 41.08460 | 158.20410 | 31703 ft | 495 kts | 57° |
| 2026-05-05 20:46 | 41.11579 | 158.28510 | 31694 ft | 495 kts | 57° |
| 2026-05-05 20:47 | 41.14714 | 158.36671 | 31708 ft | 495 kts | 58° |
| 2026-05-05 20:47 | 41.17810 | 158.44757 | 31737 ft | 495 kts | 57° |
| 2026-05-05 20:48 | 41.20923 | 158.52904 | 31777 ft | 495 kts | 58° |
| 2026-05-05 20:48 | 41.24015 | 158.61026 | 31789 ft | 495 kts | 58° |
| 2026-05-05 20:49 | 41.27124 | 158.69209 | 31794 ft | 495 kts | 58° |
| 2026-05-05 20:49 | 41.30210 | 158.77359 | 31788 ft | 495 kts | 58° |
| 2026-05-05 20:50 | 41.32776 | 158.84149 | 31783 ft | 495 kts | 58° |
| 2026-05-05 20:50 | 41.36361 | 158.93668 | 31784 ft | 495 kts | 58° |
| 2026-05-05 20:51 | 41.39455 | 159.01906 | 31783 ft | 495 kts | 58° |
| 2026-05-05 20:51 | 41.42502 | 159.10040 | 31788 ft | 495 kts | 58° |
| 2026-05-05 20:52 | 41.45568 | 159.18248 | 31788 ft | 495 kts | 58° |
| 2026-05-05 20:52 | 41.48623 | 159.26454 | 31803 ft | 495 kts | 58° |
| 2026-05-05 20:53 | 41.51680 | 159.34689 | 31824 ft | 495 kts | 58° |
| 2026-05-05 20:53 | 41.54706 | 159.42862 | 31824 ft | 495 kts | 58° |
| 2026-05-05 20:54 | 41.57754 | 159.51114 | 31849 ft | 495 kts | 58° |
| 2026-05-05 20:54 | 41.60786 | 159.59357 | 31877 ft | 495 kts | 57° |
| 2026-05-05 20:55 | 41.63811 | 159.67596 | 31895 ft | 495 kts | 58° |
| 2026-05-05 20:55 | 41.66833 | 159.75851 | 31874 ft | 495 kts | 58° |
| 2026-05-05 20:56 | 41.69849 | 159.84114 | 31865 ft | 495 kts | 58° |
| 2026-05-05 20:56 | 41.72840 | 159.92334 | 31882 ft | 495 kts | 58° |
| 2026-05-05 20:57 | 41.75837 | 160.00592 | 31891 ft | 495 kts | 58° |
| 2026-05-05 20:57 | 41.78846 | 160.08908 | 31881 ft | 494 kts | 58° |
| 2026-05-05 20:58 | 41.81813 | 160.17136 | 31880 ft | 494 kts | 58° |
| 2026-05-05 20:58 | 41.84806 | 160.25458 | 31879 ft | 494 kts | 58° |
| 2026-05-05 20:59 | 41.87770 | 160.33722 | 31885 ft | 494 kts | 58° |
| 2026-05-05 20:59 | 41.90735 | 160.42013 | 31900 ft | 494 kts | 59° |
| 2026-05-05 21:00 | 41.93693 | 160.50310 | 31910 ft | 494 kts | 58° |
| 2026-05-05 21:00 | 41.96654 | 160.58640 | 31926 ft | 494 kts | 59° |
| 2026-05-05 21:01 | 41.99624 | 160.67020 | 31949 ft | 494 kts | 59° |
| 2026-05-05 21:01 | 42.02558 | 160.75323 | 31920 ft | 494 kts | 59° |
| 2026-05-05 21:02 | 42.05500 | 160.83672 | 31903 ft | 494 kts | 59° |
| 2026-05-05 21:02 | 42.08429 | 160.92011 | 31878 ft | 494 kts | 59° |
| 2026-05-05 21:03 | 42.11337 | 161.00313 | 31871 ft | 494 kts | 59° |
| 2026-05-05 21:03 | 42.14257 | 161.08673 | 31884 ft | 494 kts | 59° |
| 2026-05-05 21:04 | 42.17169 | 161.17042 | 31888 ft | 495 kts | 59° |
| 2026-05-05 21:04 | 42.20087 | 161.25450 | 31888 ft | 495 kts | 59° |
| 2026-05-05 21:05 | 42.23000 | 161.33867 | 31904 ft | 495 kts | 59° |
| 2026-05-05 21:05 | 42.25896 | 161.42262 | 31881 ft | 495 kts | 59° |
| 2026-05-05 21:06 | 42.28782 | 161.50653 | 31886 ft | 495 kts | 60° |
| 2026-05-05 21:06 | 42.31676 | 161.59097 | 31910 ft | 496 kts | 59° |
| 2026-05-05 21:07 | 42.34545 | 161.67485 | 31884 ft | 496 kts | 60° |
| 2026-05-05 21:07 | 42.37447 | 161.76001 | 31884 ft | 496 kts | 60° |
| 2026-05-05 21:08 | 42.40308 | 161.84419 | 31853 ft | 496 kts | 60° |
| 2026-05-05 21:08 | 42.43175 | 161.92886 | 31836 ft | 497 kts | 60° |
| 2026-05-05 21:09 | 42.46036 | 162.01360 | 31795 ft | 497 kts | 60° |
| 2026-05-05 21:09 | 42.48896 | 162.09857 | 31784 ft | 498 kts | 60° |
| 2026-05-05 21:10 | 42.51762 | 162.18398 | 31790 ft | 498 kts | 60° |
| 2026-05-05 21:10 | 42.54611 | 162.26907 | 31770 ft | 499 kts | 60° |
| 2026-05-05 21:11 | 42.57458 | 162.35449 | 31775 ft | 499 kts | 60° |
| 2026-05-05 21:11 | 42.60316 | 162.44047 | 31770 ft | 500 kts | 60° |
| 2026-05-05 21:12 | 42.63152 | 162.52600 | 31771 ft | 500 kts | 61° |
| 2026-05-05 21:12 | 42.66002 | 162.61234 | 31760 ft | 501 kts | 61° |
| 2026-05-05 21:13 | 42.68830 | 162.69818 | 31754 ft | 502 kts | 62° |
| 2026-05-05 21:13 | 42.71660 | 162.78445 | 31750 ft | 502 kts | 62° |
| 2026-05-05 21:14 | 42.74502 | 162.87128 | 31709 ft | 503 kts | 62° |
| 2026-05-05 21:14 | 42.77332 | 162.95805 | 31693 ft | 504 kts | 62° |
| 2026-05-05 21:15 | 42.80163 | 163.04513 | 31681 ft | 505 kts | 62° |
| 2026-05-05 21:15 | 42.82989 | 163.13238 | 31668 ft | 506 kts | 62° |
| 2026-05-05 21:16 | 42.85822 | 163.22012 | 31671 ft | 507 kts | 62° |
| 2026-05-05 21:16 | 42.88645 | 163.30780 | 31659 ft | 508 kts | 62° |
| 2026-05-05 21:17 | 42.91478 | 163.39609 | 31666 ft | 509 kts | 62° |
| 2026-05-05 21:17 | 42.94289 | 163.48398 | 31652 ft | 510 kts | 63° |
| 2026-05-05 21:18 | 42.97117 | 163.57274 | 31659 ft | 510 kts | 63° |
| 2026-05-05 21:18 | 42.99947 | 163.66180 | 31653 ft | 511 kts | 64° |
| 2026-05-05 21:19 | 43.02753 | 163.75049 | 31632 ft | 512 kts | 64° |
| 2026-05-05 21:19 | 43.05569 | 163.83971 | 31617 ft | 513 kts | 63° |
| 2026-05-05 21:20 | 43.08369 | 163.92873 | 31587 ft | 513 kts | 64° |
| 2026-05-05 21:20 | 43.11187 | 164.01865 | 31571 ft | 514 kts | 64° |
| 2026-05-05 21:21 | 43.13993 | 164.10849 | 31558 ft | 515 kts | 64° |
| 2026-05-05 21:21 | 43.16786 | 164.19824 | 31547 ft | 516 kts | 64° |
| 2026-05-05 21:22 | 43.19590 | 164.28865 | 31532 ft | 517 kts | 64° |
| 2026-05-05 21:22 | 43.22384 | 164.37904 | 31540 ft | 518 kts | 64° |
| 2026-05-05 21:23 | 43.25195 | 164.47028 | 31542 ft | 519 kts | 64° |
| 2026-05-05 21:23 | 43.27995 | 164.56152 | 31544 ft | 520 kts | 64° |
| 2026-05-05 21:24 | 43.30788 | 164.65282 | 31549 ft | 521 kts | 65° |
| 2026-05-05 21:24 | 43.33577 | 164.74435 | 31522 ft | 522 kts | 66° |
| 2026-05-05 21:25 | 43.36373 | 164.83638 | 31496 ft | 523 kts | 66° |
| 2026-05-05 21:25 | 43.39148 | 164.92806 | 31473 ft | 524 kts | 66° |
| 2026-05-05 21:26 | 43.41945 | 165.02077 | 31462 ft | 525 kts | 66° |
| 2026-05-05 21:26 | 43.44721 | 165.11319 | 31531 ft | 526 kts | 66° |
| 2026-05-05 21:27 | 43.47513 | 165.20644 | 31558 ft | 527 kts | 66° |
| 2026-05-05 21:27 | 43.50298 | 165.29980 | 31491 ft | 528 kts | 67° |
| 2026-05-05 21:28 | 43.53085 | 165.39360 | 31473 ft | 530 kts | 67° |
| 2026-05-05 21:28 | 43.55856 | 165.48715 | 31504 ft | 530 kts | 66° |
| 2026-05-05 21:29 | 43.58639 | 165.58150 | 31492 ft | 531 kts | 67° |
| 2026-05-05 21:29 | 43.61428 | 165.67630 | 31509 ft | 532 kts | 68° |
| 2026-05-05 21:30 | 43.64192 | 165.77077 | 31494 ft | 533 kts | 68° |
| 2026-05-05 21:30 | 43.66939 | 165.86494 | 31485 ft | 534 kts | 68° |
| 2026-05-05 21:31 | 43.69714 | 165.96034 | 31458 ft | 535 kts | 68° |
| 2026-05-05 21:31 | 43.72475 | 166.05572 | 31465 ft | 536 kts | 69° |
| 2026-05-05 21:32 | 43.75220 | 166.15089 | 31472 ft | 537 kts | 68° |
| 2026-05-05 21:32 | 43.77965 | 166.24638 | 31479 ft | 538 kts | 69° |
| 2026-05-05 21:33 | 43.80708 | 166.34222 | 31491 ft | 538 kts | 68° |
| 2026-05-05 21:33 | 43.83473 | 166.43916 | 31507 ft | 539 kts | 69° |
| 2026-05-05 21:34 | 43.86209 | 166.53548 | 31533 ft | 540 kts | 69° |
| 2026-05-05 21:34 | 43.88952 | 166.63242 | 31566 ft | 541 kts | 68° |
| 2026-05-05 21:35 | 43.91687 | 166.72951 | 31561 ft | 542 kts | 70° |
| 2026-05-05 21:35 | 43.94415 | 166.82663 | 31557 ft | 543 kts | 70° |
| 2026-05-05 21:36 | 43.97136 | 166.92398 | 31556 ft | 543 kts | 70° |
| 2026-05-05 21:36 | 43.99868 | 167.02203 | 31560 ft | 544 kts | 70° |
| 2026-05-05 21:37 | 44.02576 | 167.11966 | 31574 ft | 545 kts | 70° |
| 2026-05-05 21:37 | 44.05283 | 167.21761 | 31594 ft | 546 kts | 71° |
| 2026-05-05 21:38 | 44.07996 | 167.31615 | 31625 ft | 547 kts | 70° |
| 2026-05-05 21:38 | 44.10690 | 167.41444 | 31659 ft | 547 kts | 71° |
| 2026-05-05 21:39 | 44.13389 | 167.51332 | 31660 ft | 548 kts | 71° |
| 2026-05-05 21:39 | 44.16081 | 167.61232 | 31675 ft | 548 kts | 71° |
| 2026-05-05 21:40 | 44.18756 | 167.71115 | 31653 ft | 549 kts | 72° |
| 2026-05-05 21:40 | 44.21448 | 167.81090 | 31625 ft | 550 kts | 72° |
| 2026-05-05 21:41 | 44.24114 | 167.91020 | 31598 ft | 550 kts | 72° |
| 2026-05-05 21:41 | 44.26781 | 168.00996 | 31575 ft | 551 kts | 72° |
| 2026-05-05 21:42 | 44.29449 | 168.11014 | 31578 ft | 552 kts | 73° |
| 2026-05-05 21:42 | 44.32106 | 168.21031 | 31577 ft | 553 kts | 72° |
| 2026-05-05 21:43 | 44.34750 | 168.31047 | 31588 ft | 553 kts | 73° |
| 2026-05-05 21:43 | 44.37391 | 168.41077 | 31620 ft | 554 kts | 73° |
| 2026-05-05 21:44 | 44.40037 | 168.51195 | 31739 ft | 554 kts | 73° |
| 2026-05-05 21:44 | 44.42667 | 168.61284 | 31677 ft | 555 kts | 73° |
| 2026-05-05 21:45 | 44.45316 | 168.71466 | 31673 ft | 555 kts | 75° |
| 2026-05-05 21:45 | 44.47933 | 168.81606 | 31661 ft | 555 kts | 75° |
| 2026-05-05 21:46 | 44.50535 | 168.91719 | 31661 ft | 555 kts | 74° |
| 2026-05-05 21:46 | 44.53129 | 169.01829 | 31662 ft | 556 kts | 75° |
| 2026-05-05 21:47 | 44.55733 | 169.12035 | 31664 ft | 556 kts | 75° |
| 2026-05-05 21:47 | 44.58308 | 169.22172 | 31670 ft | 556 kts | 75° |
| 2026-05-05 21:48 | 44.60887 | 169.32370 | 31687 ft | 557 kts | 75° |
| 2026-05-05 21:48 | 44.63471 | 169.42631 | 31712 ft | 557 kts | 75° |
| 2026-05-05 21:49 | 44.66048 | 169.52916 | 31773 ft | 557 kts | 74° |
| 2026-05-05 21:49 | 44.68594 | 169.63113 | 31864 ft | 557 kts | 75° |
| 2026-05-05 21:50 | 44.71156 | 169.73425 | 31868 ft | 557 kts | 76° |
| 2026-05-05 21:50 | 44.73694 | 169.83684 | 31762 ft | 558 kts | 76° |
| 2026-05-05 21:51 | 44.76239 | 169.94028 | 31763 ft | 558 kts | 75° |
| 2026-05-05 21:51 | 44.78760 | 170.04303 | 31776 ft | 558 kts | 75° |
| 2026-05-05 21:52 | 44.82512 | 170.19699 | 31815 ft | 558 kts | 76° |
| 2026-05-05 21:53 | 44.85016 | 170.30026 | 31856 ft | 558 kts | 76° |
| 2026-05-05 21:53 | 44.87503 | 170.40343 | 31907 ft | 558 kts | 76° |
| 2026-05-05 21:54 | 44.89986 | 170.50681 | 31963 ft | 557 kts | 76° |
| 2026-05-05 21:54 | 44.92461 | 170.61032 | 32028 ft | 557 kts | 76° |
| 2026-05-05 21:55 | 44.94924 | 170.71385 | 32065 ft | 557 kts | 76° |
| 2026-05-05 21:55 | 44.97366 | 170.81696 | 32091 ft | 556 kts | 77° |
| 2026-05-05 21:56 | 44.99809 | 170.92067 | 32119 ft | 556 kts | 76° |
| 2026-05-05 21:56 | 45.02249 | 171.02461 | 32136 ft | 556 kts | 77° |
| 2026-05-05 21:57 | 45.04657 | 171.12762 | 32154 ft | 555 kts | 76° |
| 2026-05-05 21:57 | 45.07070 | 171.23152 | 32194 ft | 555 kts | 76° |
| 2026-05-05 21:58 | 45.09463 | 171.33501 | 32246 ft | 555 kts | 76° |
| 2026-05-05 21:58 | 45.11852 | 171.43880 | 32266 ft | 554 kts | 76° |
| 2026-05-05 21:59 | 45.14213 | 171.54176 | 32271 ft | 554 kts | 77° |
| 2026-05-05 21:59 | 45.16577 | 171.64549 | 32291 ft | 554 kts | 76° |
| 2026-05-05 22:00 | 45.18921 | 171.74880 | 32261 ft | 553 kts | 78° |
| 2026-05-05 22:00 | 45.21258 | 171.85234 | 32236 ft | 553 kts | 77° |
| 2026-05-05 22:01 | 45.23581 | 171.95548 | 32218 ft | 553 kts | 78° |
| 2026-05-05 22:01 | 45.25898 | 172.05922 | 32206 ft | 553 kts | 77° |
| 2026-05-05 22:02 | 45.28201 | 172.16275 | 32200 ft | 552 kts | 77° |
| 2026-05-05 22:02 | 45.30508 | 172.26689 | 32199 ft | 552 kts | 77° |
| 2026-05-05 22:03 | 45.32783 | 172.37006 | 32208 ft | 552 kts | 77° |
| 2026-05-05 22:03 | 45.35062 | 172.47391 | 32222 ft | 551 kts | 77° |
| 2026-05-05 22:04 | 45.37316 | 172.57724 | 32247 ft | 551 kts | 77° |
| 2026-05-05 22:04 | 45.39573 | 172.68108 | 32259 ft | 551 kts | 78° |
| 2026-05-05 22:05 | 45.41814 | 172.78482 | 32237 ft | 550 kts | 78° |
| 2026-05-05 22:05 | 45.44059 | 172.88927 | 32226 ft | 550 kts | 78° |
| 2026-05-05 22:06 | 45.46268 | 172.99242 | 32223 ft | 550 kts | 77° |
| 2026-05-05 22:06 | 45.48493 | 173.09706 | 32223 ft | 550 kts | 77° |
| 2026-05-05 22:07 | 45.50696 | 173.20106 | 32242 ft | 550 kts | 78° |
| 2026-05-05 22:07 | 45.52884 | 173.30490 | 32269 ft | 549 kts | 78° |
| 2026-05-05 22:08 | 45.55068 | 173.40901 | 32299 ft | 549 kts | 77° |
| 2026-05-05 22:08 | 45.57239 | 173.51309 | 32336 ft | 548 kts | 77° |
| 2026-05-05 22:09 | 45.59399 | 173.61723 | 32373 ft | 548 kts | 77° |
| 2026-05-05 22:09 | 45.61532 | 173.72049 | 32388 ft | 547 kts | 78° |
| 2026-05-05 22:10 | 45.63661 | 173.82419 | 32385 ft | 546 kts | 79° |
| 2026-05-05 22:10 | 45.65797 | 173.92876 | 32401 ft | 546 kts | 78° |
| 2026-05-05 22:11 | 45.67904 | 174.03241 | 32411 ft | 545 kts | 79° |
| 2026-05-05 22:11 | 45.69998 | 174.13596 | 32434 ft | 544 kts | 78° |
| 2026-05-05 22:12 | 45.72095 | 174.24017 | 32465 ft | 544 kts | 77° |
| 2026-05-05 22:12 | 45.74158 | 174.34326 | 32497 ft | 543 kts | 78° |
| 2026-05-05 22:13 | 45.76229 | 174.44731 | 32541 ft | 542 kts | 78° |
| 2026-05-05 22:13 | 45.78268 | 174.55032 | 32573 ft | 541 kts | 77° |
| 2026-05-05 22:14 | 45.80304 | 174.65370 | 32634 ft | 540 kts | 78° |
| 2026-05-05 22:14 | 45.82339 | 174.75758 | 32650 ft | 539 kts | 78° |
| 2026-05-05 22:15 | 45.84342 | 174.86038 | 32666 ft | 538 kts | 77° |
| 2026-05-05 22:15 | 45.86345 | 174.96364 | 32677 ft | 537 kts | 77° |
| 2026-05-05 22:16 | 45.88332 | 175.06679 | 32692 ft | 536 kts | 77° |
| 2026-05-05 22:16 | 45.90297 | 175.16925 | 32727 ft | 535 kts | 77° |
| 2026-05-05 22:17 | 45.92258 | 175.27205 | 32760 ft | 534 kts | 77° |
| 2026-05-05 22:17 | 45.94199 | 175.37442 | 32799 ft | 534 kts | 77° |
| 2026-05-05 22:18 | 45.96139 | 175.47717 | 32843 ft | 533 kts | 77° |
| 2026-05-05 22:18 | 45.98061 | 175.57971 | 32888 ft | 532 kts | 77° |
| 2026-05-05 22:19 | 45.99982 | 175.68259 | 32904 ft | 531 kts | 78° |
| 2026-05-05 22:19 | 46.01869 | 175.78424 | 32904 ft | 529 kts | 78° |
| 2026-05-05 22:20 | 46.03758 | 175.88664 | 32919 ft | 529 kts | 77° |
| 2026-05-05 22:20 | 46.05626 | 175.98843 | 32937 ft | 528 kts | 77° |
| 2026-05-05 22:21 | 46.07489 | 176.09049 | 32955 ft | 527 kts | 77° |
| 2026-05-05 22:21 | 46.09331 | 176.19179 | 32986 ft | 526 kts | 77° |
| 2026-05-05 22:22 | 46.11179 | 176.29428 | 33000 ft | 525 kts | 77° |
| 2026-05-05 22:22 | 46.12994 | 176.39537 | 33006 ft | 524 kts | 78° |
| 2026-05-05 22:23 | 46.14800 | 176.49651 | 33006 ft | 524 kts | 77° |
| 2026-05-05 22:23 | 46.16601 | 176.59802 | 33031 ft | 523 kts | 77° |
| 2026-05-05 22:24 | 46.18386 | 176.69911 | 33032 ft | 523 kts | 78° |
| 2026-05-05 22:24 | 46.20177 | 176.80119 | 33014 ft | 522 kts | 77° |
| 2026-05-05 22:25 | 46.21945 | 176.90247 | 32985 ft | 522 kts | 77° |
| 2026-05-05 22:25 | 46.23705 | 177.00383 | 32987 ft | 521 kts | 77° |
| 2026-05-05 22:26 | 46.25449 | 177.10498 | 32985 ft | 520 kts | 77° |
| 2026-05-05 22:26 | 46.27182 | 177.20595 | 32990 ft | 520 kts | 77° |
| 2026-05-05 22:27 | 46.28907 | 177.30710 | 32978 ft | 519 kts | 78° |
| 2026-05-05 22:27 | 46.30612 | 177.40764 | 33035 ft | 517 kts | 77° |
| 2026-05-05 22:28 | 46.32313 | 177.50853 | 33056 ft | 516 kts | 77° |
| 2026-05-05 22:28 | 46.33992 | 177.60872 | 33056 ft | 515 kts | 77° |
| 2026-05-05 22:29 | 46.35668 | 177.70931 | 33059 ft | 515 kts | 78° |
| 2026-05-05 22:29 | 46.37330 | 177.80972 | 33067 ft | 514 kts | 77° |
| 2026-05-05 22:30 | 46.38973 | 177.90948 | 33058 ft | 513 kts | 77° |
| 2026-05-05 22:30 | 46.40613 | 178.00963 | 33059 ft | 513 kts | 77° |
| 2026-05-05 22:31 | 46.42250 | 178.11021 | 33067 ft | 513 kts | 77° |
| 2026-05-05 22:31 | 46.43870 | 178.21036 | 33084 ft | 512 kts | 77° |
| 2026-05-05 22:32 | 46.45486 | 178.31091 | 33092 ft | 512 kts | 77° |
| 2026-05-05 22:32 | 46.47087 | 178.41104 | 33105 ft | 511 kts | 76° |
| 2026-05-05 22:33 | 46.48682 | 178.51141 | 33133 ft | 511 kts | 76° |
| 2026-05-05 22:33 | 46.50264 | 178.61162 | 33166 ft | 511 kts | 77° |
| 2026-05-05 22:34 | 46.51839 | 178.71191 | 33169 ft | 510 kts | 77° |
| 2026-05-05 22:34 | 46.53409 | 178.81262 | 33165 ft | 510 kts | 77° |
| 2026-05-05 22:35 | 46.54956 | 178.91246 | 33155 ft | 510 kts | 77° |
| 2026-05-05 22:35 | 46.56504 | 179.01291 | 33171 ft | 509 kts | 77° |
| 2026-05-05 22:36 | 46.58028 | 179.11255 | 33180 ft | 509 kts | 76° |
| 2026-05-05 22:36 | 46.59558 | 179.21315 | 33196 ft | 508 kts | 76° |
| 2026-05-05 22:37 | 46.61071 | 179.31311 | 33228 ft | 508 kts | 76° |
| 2026-05-05 22:37 | 46.62570 | 179.41299 | 33247 ft | 508 kts | 76° |
| 2026-05-05 22:38 | 46.64060 | 179.51277 | 33279 ft | 508 kts | 76° |
| 2026-05-05 22:38 | 46.65553 | 179.61345 | 33306 ft | 507 kts | 76° |
| 2026-05-05 22:39 | 46.67028 | 179.71355 | 33308 ft | 507 kts | 76° |
| 2026-05-05 22:39 | 46.68500 | 179.81413 | 33298 ft | 507 kts | 77° |
| 2026-05-05 22:40 | 46.69950 | 179.91382 | 33292 ft | 507 kts | 76° |
| 2026-05-05 22:40 | 46.71399 | -179.98590 | 33292 ft | 506 kts | 76° |
| 2026-05-05 22:41 | 46.72833 | -179.88599 | 33293 ft | 506 kts | 76° |
| 2026-05-05 22:41 | 46.74260 | -179.78593 | 33301 ft | 506 kts | 76° |
| 2026-05-05 22:42 | 46.75681 | -179.68559 | 33313 ft | 506 kts | 76° |
| 2026-05-05 22:42 | 46.77082 | -179.58604 | 33329 ft | 506 kts | 76° |
| 2026-05-05 22:43 | 46.78485 | -179.48569 | 33346 ft | 506 kts | 76° |
| 2026-05-05 22:43 | 46.79875 | -179.38551 | 33323 ft | 506 kts | 76° |
| 2026-05-05 22:44 | 46.81253 | -179.28551 | 33307 ft | 505 kts | 76° |
| 2026-05-05 22:44 | 46.82630 | -179.18495 | 33293 ft | 505 kts | 75° |
| 2026-05-05 22:45 | 46.83986 | -179.08522 | 33282 ft | 505 kts | 75° |
| 2026-05-05 22:45 | 46.85343 | -178.98476 | 33277 ft | 505 kts | 75° |
| 2026-05-05 22:46 | 46.86692 | -178.88409 | 33280 ft | 505 kts | 75° |
| 2026-05-05 22:46 | 46.88026 | -178.78403 | 33291 ft | 505 kts | 75° |
| 2026-05-05 22:47 | 46.89352 | -178.68376 | 33308 ft | 505 kts | 75° |
| 2026-05-05 22:47 | 46.90674 | -178.58295 | 33327 ft | 505 kts | 75° |
| 2026-05-05 22:48 | 46.91983 | -178.48261 | 33344 ft | 505 kts | 75° |
| 2026-05-05 22:48 | 46.93287 | -178.38179 | 33324 ft | 505 kts | 75° |
| 2026-05-05 22:49 | 46.94580 | -178.28125 | 33297 ft | 505 kts | 75° |
| 2026-05-05 22:49 | 46.95866 | -178.18031 | 33285 ft | 505 kts | 75° |
| 2026-05-05 22:50 | 46.97146 | -178.07921 | 33276 ft | 505 kts | 75° |
| 2026-05-05 22:50 | 46.98408 | -177.97870 | 33278 ft | 505 kts | 75° |
| 2026-05-05 22:51 | 46.99668 | -177.87773 | 33267 ft | 505 kts | 74° |
| 2026-05-05 22:51 | 47.00920 | -177.77657 | 33269 ft | 505 kts | 74° |
| 2026-05-05 22:52 | 47.02154 | -177.67606 | 33270 ft | 505 kts | 74° |
| 2026-05-05 22:52 | 47.03386 | -177.57509 | 33273 ft | 505 kts | 74° |
| 2026-05-05 22:53 | 47.04614 | -177.47356 | 33287 ft | 505 kts | 73° |
| 2026-05-05 22:53 | 47.05831 | -177.37219 | 33298 ft | 505 kts | 73° |
| 2026-05-05 22:54 | 47.07034 | -177.27124 | 33274 ft | 505 kts | 74° |
| 2026-05-05 22:54 | 47.08228 | -177.17006 | 33247 ft | 505 kts | 74° |
| 2026-05-05 22:55 | 47.09415 | -177.06880 | 33224 ft | 505 kts | 74° |
| 2026-05-05 22:55 | 47.10596 | -176.96730 | 33219 ft | 505 kts | 73° |
| 2026-05-05 22:56 | 47.11760 | -176.86636 | 33240 ft | 505 kts | 73° |
| 2026-05-05 22:56 | 47.12924 | -176.76457 | 33249 ft | 505 kts | 73° |
| 2026-05-05 22:57 | 47.14067 | -176.66400 | 33284 ft | 505 kts | 73° |
| 2026-05-05 22:57 | 47.15207 | -176.56274 | 33316 ft | 505 kts | 73° |
| 2026-05-05 22:58 | 47.16345 | -176.46083 | 33354 ft | 505 kts | 73° |
| 2026-05-05 22:58 | 47.17464 | -176.35963 | 33397 ft | 505 kts | 73° |
| 2026-05-05 22:59 | 47.18580 | -176.25797 | 33394 ft | 505 kts | 74° |
| 2026-05-05 22:59 | 47.19691 | -176.15593 | 33395 ft | 505 kts | 73° |
| 2026-05-05 23:00 | 47.21331 | -176.00360 | 33406 ft | 505 kts | 74° |
| 2026-05-05 23:00 | 47.22416 | -175.90175 | 33422 ft | 504 kts | 73° |
| 2026-05-05 23:01 | 47.23492 | -175.79993 | 33440 ft | 504 kts | 73° |
| 2026-05-05 23:01 | 47.24559 | -175.69791 | 33466 ft | 504 kts | 73° |